Des Arc, Arkansas
Current Conditions -  °F | °C
As of 2:56 PM on Tuesday 21 Oct 2014 (Local Time) from KSRC Reporting Station
Clear Clear  
Wind Chill: 78°   Ceiling: Unl
Heat Index: 79°   Visibility: 10mi
Dew Point: 51°   Wind: 5mph
Humidity: 39%   Direction: 340°NNW
Pressure: 30.06"   Gusts: NA
Location:  34.98°N, 91.5°W
Report Text: KSRC 211956Z AUTO 34004KT 10SM CLR 26/11 A3006 RMK AO2 SLP185 T02560106 TSNO
Loading
Personal Weather Stations






























Interactive Weather Map
Tropical Storm Tracking
New forecast layout! Learn more

10-Day Weather Forecast

Advertisements
Track Severe Weather on mobile